Time;durP1;ratioP1;P1;durP2;ratioP2;P2;SDS_P1;SDS_P2;PMS_P1;PMS_P2;Temp;Humidity;BMP_temperature;BMP_pressure;BME280_temperature;BME280_humidity;BME280_pressure;Samples;Min_cycle;Max_cycle;Signal;HPM_P1;HPM_P2
2022/09/22 00:00:59;;;;;;;4.10;2.57;;;8.60;99.90;;;;;;6181138;23;20001;-73
2022/09/22 00:03:27;;;;;;;7.10;2.40;;;8.50;99.90;;;;;;6181980;23;20012;-73
2022/09/22 00:06:14;;;;;;;6.63;3.20;;;8.60;99.90;;;;;;6181300;23;20418;-73
2022/09/22 00:08:43;;;;;;;5.83;2.50;;;8.60;99.90;;;;;;6181596;23;20005;-73
2022/09/22 00:11:15;;;;;;;4.00;2.73;;;8.60;99.90;;;;;;6181828;23;20036;-73
2022/09/22 00:13:43;;;;;;;6.50;2.70;;;8.50;99.90;;;;;;6181785;23;20005;-73
2022/09/22 00:16:11;;;;;;;3.10;2.47;;;8.50;99.90;;;;;;6181249;23;20012;-73
2022/09/22 00:18:36;;;;;;;6.10;2.95;;;8.50;99.90;;;;;;6182085;23;20032;-73
2022/09/22 00:21:08;;;;;;;4.40;2.37;;;8.40;99.90;;;;;;6181284;23;20001;-73
2022/09/22 00:23:34;;;;;;;4.30;2.47;;;9.70;99.90;;;;;;6181594;23;20005;-73
2022/09/22 00:26:03;;;;;;;3.63;2.57;;;8.40;99.90;;;;;;6180812;23;20001;-73
2022/09/22 00:28:29;;;;;;;3.93;2.47;;;8.40;99.90;;;;;;6181441;23;20024;-73
2022/09/22 00:30:54;;;;;;;7.32;2.50;;;8.30;99.90;;;;;;6180422;23;20005;-73
2022/09/22 00:33:20;;;;;;;4.75;2.72;;;8.30;99.90;;;;;;6181500;23;20403;-73
2022/09/22 00:35:56;;;;;;;5.57;2.93;;;8.40;99.90;;;;;;6181386;23;20001;-73
2022/09/22 00:38:22;;;;;;;3.90;2.27;;;8.40;99.90;;;;;;6181863;23;20068;-73
2022/09/22 00:40:48;;;;;;;4.33;2.47;;;8.40;99.90;;;;;;6181135;23;20032;-72
2022/09/22 00:43:17;;;;;;;3.80;2.70;;;8.30;99.90;;;;;;6181790;23;20064;-73
2022/09/22 00:45:46;;;;;;;4.23;2.30;;;8.30;99.90;;;;;;6182164;23;20497;-72
2022/09/22 00:48:11;;;;;;;5.50;2.43;;;8.40;99.90;;;;;;6183462;23;20035;-73
2022/09/22 00:50:37;;;;;;;4.83;2.87;;;8.20;99.90;;;;;;6183548;23;20005;-73
2022/09/22 00:53:09;;;;;;;5.03;2.43;;;8.20;99.90;;;;;;6183040;23;20090;-73
2022/09/22 00:55:57;;;;;;;6.20;2.90;;;8.20;99.90;;;;;;6183536;23;20005;-73
2022/09/22 00:58:32;;;;;;;5.43;2.20;;;8.20;99.90;;;;;;6182797;23;20001;-73
2022/09/22 01:00:58;;;;;;;2.97;2.37;;;8.20;99.90;;;;;;6182818;23;20001;-73
2022/09/22 01:03:25;;;;;;;6.40;2.67;;;8.10;99.90;;;;;;6183280;23;20427;-73
2022/09/22 01:05:55;;;;;;;2.97;2.10;;;8.20;99.90;;;;;;6183521;23;20055;-74
2022/09/22 01:08:22;;;;;;;4.37;2.83;;;8.20;99.90;;;;;;6183600;23;20007;-73
2022/09/22 01:10:48;;;;;;;6.00;2.20;;;8.10;99.90;;;;;;6183254;23;20498;-73
2022/09/22 01:13:25;;;;;;;3.00;2.53;;;8.10;99.90;;;;;;6182900;23;20092;-73
2022/09/22 01:16:15;;;;;;;3.53;2.27;;;8.00;99.90;;;;;;6183108;23;20036;-73
2022/09/22 01:18:55;;;;;;;6.43;2.70;;;8.00;99.90;;;;;;6183311;23;20001;-73
2022/09/22 01:21:41;;;;;;;4.10;2.23;;;8.00;99.90;;;;;;6183360;23;20001;-73
2022/09/22 01:24:40;;;;;;;2.97;2.20;;;8.00;99.90;;;;;;6182911;23;20427;-73
2022/09/22 01:27:20;;;;;;;5.20;3.53;;;8.00;99.90;;;;;;6182350;23;20035;-73
2022/09/22 01:30:05;;;;;;;4.40;2.30;;;8.00;99.90;;;;;;6182716;23;20059;-73
2022/09/22 01:32:43;;;;;;;5.63;2.87;;;8.10;99.90;;;;;;6183319;23;20009;-73
2022/09/22 01:35:14;;;;;;;3.80;2.83;;;7.80;99.90;;;;;;6182875;23;20011;-73
2022/09/22 01:37:55;;;;;;;4.07;2.63;;;8.00;99.90;;;;;;6183091;23;20444;-73
2022/09/22 01:40:33;;;;;;;5.80;3.13;;;7.90;99.90;;;;;;6183173;23;20005;-73
2022/09/22 01:43:20;;;;;;;5.73;2.70;;;7.80;99.90;;;;;;6180243;23;20129;-73
2022/09/22 01:45:47;;;;;;;4.17;2.67;;;7.90;99.90;;;;;;6182288;23;20005;-73
2022/09/22 01:48:17;;;;;;;4.80;2.43;;;7.70;99.90;;;;;;6182614;23;20005;-73
2022/09/22 01:51:06;;;;;;;4.00;2.97;;;8.00;99.90;;;;;;6182180;23;20005;-73
2022/09/22 01:53:38;;;;;;;3.73;2.87;;;7.90;99.90;;;;;;6181612;23;20012;-73
2022/09/22 01:56:08;;;;;;;4.97;2.80;;;7.70;99.90;;;;;;6181849;23;20004;-73
2022/09/22 01:58:46;;;;;;;5.67;3.03;;;7.70;99.90;;;;;;6181730;23;20058;-73
2022/09/22 02:01:18;;;;;;;4.37;2.83;;;7.60;99.90;;;;;;6182472;23;20001;-73
2022/09/22 02:04:06;;;;;;;3.63;2.80;;;7.70;99.90;;;;;;6183152;23;20008;-72
2022/09/22 02:06:37;;;;;;;4.67;2.80;;;7.80;99.90;;;;;;6183545;23;20012;-73
2022/09/22 02:09:09;;;;;;;7.67;3.93;;;7.80;99.90;;;;;;6182560;23;19998;-73
2022/09/22 02:11:35;;;;;;;4.03;3.10;;;7.70;99.90;;;;;;6182585;23;20040;-73
2022/09/22 02:14:02;;;;;;;4.67;3.17;;;7.70;99.90;;;;;;6182064;23;20001;-73
2022/09/22 02:16:27;;;;;;;4.37;3.20;;;7.70;99.90;;;;;;6181171;23;20036;-73
2022/09/22 02:19:00;;;;;;;4.77;3.00;;;7.70;99.90;;;;;;6181935;23;20005;-73
2022/09/22 02:21:27;;;;;;;3.53;3.07;;;7.60;99.90;;;;;;6182592;23;20004;-73
2022/09/22 02:23:53;;;;;;;6.00;3.43;;;7.60;99.90;;;;;;6180526;23;20012;-73
2022/09/22 02:26:25;;;;;;;4.27;3.07;;;7.40;99.90;;;;;;6181342;23;20005;-73
2022/09/22 02:29:09;;;;;;;8.93;3.50;;;7.60;99.90;;;;;;6181854;23;20017;-73
2022/09/22 02:31:36;;;;;;;12.07;3.83;;;7.50;99.90;;;;;;6182454;23;20431;-73
2022/09/22 02:34:04;;;;;;;5.07;3.57;;;7.50;99.90;;;;;;6182285;23;20099;-73
2022/09/22 02:36:41;;;;;;;5.50;4.33;;;7.60;99.90;;;;;;6182409;23;20071;-73
2022/09/22 02:39:25;;;;;;;6.80;3.50;;;7.20;99.90;;;;;;6181797;23;20009;-73
2022/09/22 02:41:56;;;;;;;7.78;3.83;;;7.50;99.90;;;;;;6181850;23;20411;-73
2022/09/22 02:44:28;;;;;;;6.57;3.80;;;7.50;99.90;;;;;;6182494;23;20008;-73
2022/09/22 02:47:11;;;;;;;7.63;3.63;;;7.40;99.90;;;;;;6181791;23;20005;-73
2022/09/22 02:49:37;;;;;;;5.47;2.63;;;7.50;99.90;;;;;;6182120;23;20005;-73
2022/09/22 02:52:12;;;;;;;8.57;4.13;;;7.50;99.90;;;;;;6182198;23;20001;-73
2022/09/22 02:54:38;;;;;;;9.30;4.03;;;7.30;99.90;;;;;;6181580;23;20005;-73
2022/09/22 02:57:04;;;;;;;8.07;4.13;;;7.50;99.90;;;;;;6180289;23;20012;-73
2022/09/22 02:59:30;;;;;;;5.93;3.63;;;7.30;99.90;;;;;;6181999;23;20071;-73
2022/09/22 03:01:55;;;;;;;4.60;3.63;;;7.40;99.90;;;;;;6181536;23;20008;-73
2022/09/22 03:04:21;;;;;;;3.67;3.20;;;7.40;99.90;;;;;;6182303;23;20011;-73
2022/09/22 03:06:46;;;;;;;5.40;3.80;;;7.30;99.90;;;;;;6181974;23;20025;-73
2022/09/22 03:09:15;;;;;;;5.07;3.43;;;7.40;99.90;;;;;;6181176;23;20067;-73
2022/09/22 03:11:41;;;;;;;6.13;4.03;;;7.30;99.90;;;;;;6182081;23;20002;-73
2022/09/22 03:14:07;;;;;;;5.20;3.73;;;7.20;99.90;;;;;;6182049;23;20419;-73
2022/09/22 03:16:33;;;;;;;7.13;4.27;;;7.10;99.90;;;;;;6182174;23;20113;-73
2022/09/22 03:18:58;;;;;;;9.90;4.97;;;7.20;99.90;;;;;;6181778;23;20008;-73
2022/09/22 03:21:24;;;;;;;8.13;5.30;;;7.20;99.90;;;;;;6182315;23;20001;-73
2022/09/22 03:23:50;;;;;;;6.27;4.97;;;7.30;99.90;;;;;;6181333;23;20008;-73
2022/09/22 03:26:16;;;;;;;9.37;5.27;;;7.20;99.90;;;;;;6181701;23;20071;-73
2022/09/22 03:28:42;;;;;;;12.17;5.60;;;7.20;99.90;;;;;;6181402;23;20502;-73
2022/09/22 03:31:09;;;;;;;10.37;5.37;;;7.20;99.90;;;;;;6181700;23;20001;-73
2022/09/22 03:33:35;;;;;;;6.70;5.17;;;7.00;99.90;;;;;;6182335;23;20005;-73
2022/09/22 03:36:01;;;;;;;7.63;5.60;;;7.20;99.90;;;;;;6181519;23;20415;-73
2022/09/22 03:38:26;;;;;;;8.23;5.80;;;7.00;99.90;;;;;;6181524;23;20008;-73
2022/09/22 03:40:52;;;;;;;6.53;4.93;;;7.10;99.90;;;;;;6181601;23;19997;-73
2022/09/22 03:43:19;;;;;;;8.60;5.27;;;7.20;99.90;;;;;;6181609;23;20012;-73
2022/09/22 03:45:44;;;;;;;6.80;5.40;;;6.90;99.90;;;;;;6181634;23;20001;-73
2022/09/22 03:48:10;;;;;;;7.90;6.00;;;7.10;99.90;;;;;;6181496;23;20373;-74
2022/09/22 03:50:35;;;;;;;7.57;6.00;;;7.30;99.90;;;;;;6182306;23;20429;-73
2022/09/22 03:53:01;;;;;;;15.13;7.40;;;7.10;99.90;;;;;;6180495;23;20005;-73
2022/09/22 03:55:26;;;;;;;8.43;6.13;;;7.20;99.90;;;;;;6181951;23;20021;-73
2022/09/22 03:57:52;;;;;;;12.60;6.97;;;7.00;99.90;;;;;;6181419;23;20005;-73
2022/09/22 04:00:17;;;;;;;9.70;5.93;;;6.90;99.90;;;;;;6181430;23;19997;-73
2022/09/22 04:02:43;;;;;;;7.83;5.77;;;7.00;99.90;;;;;;6181579;23;20088;-73
2022/09/22 04:05:09;;;;;;;8.63;6.90;;;6.80;99.90;;;;;;6181613;23;20080;-73
2022/09/22 04:07:35;;;;;;;8.67;6.30;;;7.00;99.90;;;;;;6181443;23;20406;-73
2022/09/22 04:10:01;;;;;;;10.17;6.30;;;6.90;99.90;;;;;;6181282;23;20016;-73
2022/09/22 04:12:27;;;;;;;7.33;6.13;;;6.90;99.90;;;;;;6182155;23;20008;-73
2022/09/22 04:14:52;;;;;;;10.60;7.10;;;6.90;99.90;;;;;;6181727;23;20004;-73
2022/09/22 04:17:19;;;;;;;11.07;6.33;;;6.80;99.90;;;;;;6181901;23;20016;-73
2022/09/22 04:19:45;;;;;;;12.30;6.37;;;6.80;99.90;;;;;;6182473;23;20080;-73
2022/09/22 04:22:11;;;;;;;9.77;6.73;;;6.80;99.90;;;;;;6183238;23;20051;-73
2022/09/22 04:24:37;;;;;;;10.97;6.63;;;6.70;99.90;;;;;;6183728;23;20080;-73
2022/09/22 04:27:02;;;;;;;10.23;6.97;;;6.80;99.90;;;;;;6183666;23;20004;-73
2022/09/22 04:29:28;;;;;;;11.33;6.63;;;6.60;99.90;;;;;;6184302;23;20012;-73
2022/09/22 04:31:53;;;;;;;12.53;6.63;;;6.80;99.90;;;;;;6183423;23;20419;-73
2022/09/22 04:34:19;;;;;;;8.90;5.87;;;6.50;99.90;;;;;;6184500;23;20308;-73
2022/09/22 04:36:45;;;;;;;9.93;6.70;;;6.70;99.90;;;;;;6183560;23;20441;-75
2022/09/22 04:39:10;;;;;;;7.97;6.33;;;6.70;99.90;;;;;;6183531;23;20055;-75
2022/09/22 04:41:36;;;;;;;12.77;7.00;;;6.80;99.90;;;;;;6183783;23;20445;-75
2022/09/22 04:44:01;;;;;;;12.93;8.17;;;6.60;99.90;;;;;;6183609;23;20009;-75
2022/09/22 04:46:27;;;;;;;10.73;7.60;;;6.70;99.90;;;;;;6183674;23;20001;-75
2022/09/22 04:48:53;;;;;;;9.33;7.07;;;6.60;99.90;;;;;;6183413;23;20415;-75
2022/09/22 04:51:18;;;;;;;13.27;8.37;;;6.70;99.90;;;;;;6183383;23;20363;-75
2022/09/22 04:53:44;;;;;;;11.77;7.50;;;6.80;99.90;;;;;;6183519;23;20001;-73
2022/09/22 04:56:10;;;;;;;12.33;8.20;;;6.70;99.90;;;;;;6183398;23;20005;-73
2022/09/22 04:58:35;;;;;;;14.80;8.73;;;6.80;99.90;;;;;;6183632;23;20016;-73
2022/09/22 05:01:03;;;;;;;9.30;8.30;;;6.50;99.90;;;;;;6182958;23;20060;-73
2022/09/22 05:03:28;;;;;;;15.03;8.53;;;6.80;99.90;;;;;;6183444;23;20009;-74
2022/09/22 05:05:54;;;;;;;12.77;8.03;;;6.70;99.90;;;;;;6182711;23;20304;-73
2022/09/22 05:08:20;;;;;;;9.87;8.23;;;6.80;99.90;;;;;;6183633;23;20338;-73
2022/09/22 05:10:46;;;;;;;13.83;9.20;;;6.50;99.90;;;;;;6183146;23;20001;-73
2022/09/22 05:13:12;;;;;;;13.00;8.93;;;6.50;99.90;;;;;;6183262;23;20050;-73
2022/09/22 05:15:41;;;;;;;15.77;8.57;;;6.60;99.90;;;;;;6183424;23;20449;-73
2022/09/22 05:18:07;;;;;;;15.17;8.87;;;6.60;99.90;;;;;;6182825;23;20080;-73
2022/09/22 05:20:33;;;;;;;17.43;10.43;;;6.40;99.90;;;;;;6183075;23;20043;-73
2022/09/22 05:22:58;;;;;;;11.90;8.47;;;6.60;99.90;;;;;;6182685;23;20037;-72
2022/09/22 05:25:24;;;;;;;17.10;9.93;;;6.40;99.90;;;;;;6183390;23;20009;-73
2022/09/22 05:27:52;;;;;;;13.17;8.47;;;6.60;99.90;;;;;;6182270;23;20025;-73
2022/09/22 05:30:19;;;;;;;12.80;9.30;;;6.50;99.90;;;;;;6183117;23;20001;-73
2022/09/22 05:32:46;;;;;;;17.53;9.60;;;6.70;99.90;;;;;;6180983;23;20061;-73
2022/09/22 05:35:14;;;;;;;14.10;9.67;;;6.30;99.90;;;;;;6182806;23;20196;-73
2022/09/22 05:37:44;;;;;;;17.87;11.23;;;6.30;99.90;;;;;;6182870;23;20001;-73
2022/09/22 05:40:11;;;;;;;18.07;9.77;;;6.60;99.90;;;;;;6182701;23;20001;-73
2022/09/22 05:42:43;;;;;;;12.63;9.07;;;6.50;99.90;;;;;;6182615;23;20028;-73
2022/09/22 05:45:09;;;;;;;16.20;10.23;;;6.60;99.90;;;;;;6181484;23;20438;-73
2022/09/22 05:47:35;;;;;;;15.70;10.83;;;6.60;99.90;;;;;;6181343;23;20054;-73
2022/09/22 05:50:01;;;;;;;16.97;11.10;;;6.70;99.90;;;;;;6182417;23;20087;-72
2022/09/22 05:52:26;;;;;;;15.37;11.63;;;6.60;99.90;;;;;;6181677;23;20091;-73
2022/09/22 05:54:52;;;;;;;18.00;11.43;;;6.70;99.90;;;;;;6182505;23;20012;-73
2022/09/22 05:57:20;;;;;;;19.17;11.67;;;6.50;99.90;;;;;;6182797;23;20005;-73
2022/09/22 05:59:46;;;;;;;14.77;10.77;;;6.70;99.90;;;;;;6182698;23;20048;-73
2022/09/22 06:02:11;;;;;;;16.50;11.67;;;6.60;99.90;;;;;;6182871;23;20330;-73
2022/09/22 06:04:37;;;;;;;17.57;11.60;;;6.70;99.90;;;;;;6182270;23;20089;-73
2022/09/22 06:07:02;;;;;;;13.53;10.50;;;6.70;99.90;;;;;;6182380;23;20061;-73
2022/09/22 06:09:28;;;;;;;12.83;10.77;;;6.70;99.90;;;;;;6182794;23;20001;-72
2022/09/22 06:11:54;;;;;;;14.70;10.50;;;6.90;99.90;;;;;;6182047;23;19997;-73
2022/09/22 06:14:19;;;;;;;17.53;12.37;;;6.90;99.90;;;;;;6182919;23;20009;-73
2022/09/22 06:16:46;;;;;;;18.40;11.87;;;6.90;99.90;;;;;;6180658;23;20009;-72
2022/09/22 06:19:12;;;;;;;14.77;11.10;;;6.90;99.90;;;;;;6181912;23;20370;-73
2022/09/22 06:21:37;;;;;;;16.13;11.97;;;6.80;99.90;;;;;;6182149;23;20059;-73
2022/09/22 06:24:03;;;;;;;19.67;11.77;;;6.80;99.90;;;;;;6180665;23;20004;-72
2022/09/22 06:26:29;;;;;;;19.47;11.23;;;7.00;99.90;;;;;;6182308;23;20016;-73
2022/09/22 06:28:54;;;;;;;19.70;12.27;;;7.10;99.90;;;;;;6178671;23;20012;-73
2022/09/22 06:31:20;;;;;;;18.30;12.73;;;7.20;99.90;;;;;;6182119;23;20386;-74
2022/09/22 06:33:47;;;;;;;18.17;13.47;;;7.40;99.90;;;;;;6180341;23;20481;-73
2022/09/22 06:36:19;;;;;;;19.40;13.53;;;7.20;99.90;;;;;;6182434;23;20008;-73
2022/09/22 06:38:45;;;;;;;17.33;13.87;;;7.30;99.90;;;;;;6180475;23;20070;-72
2022/09/22 06:41:10;;;;;;;24.70;15.97;;;7.20;99.90;;;;;;6181086;23;20039;-72
2022/09/22 06:43:36;;;;;;;18.47;15.83;;;7.50;99.90;;;;;;6179926;23;20005;-72
2022/09/22 06:46:02;;;;;;;22.10;17.03;;;7.30;99.90;;;;;;6181601;23;20001;-72
2022/09/22 06:48:28;;;;;;;21.00;18.40;;;7.60;99.90;;;;;;6179617;23;20024;-72
2022/09/22 06:50:54;;;;;;;21.07;17.50;;;7.70;99.90;;;;;;6181526;23;20024;-72
2022/09/22 06:53:20;;;;;;;22.57;20.03;;;7.80;99.90;;;;;;6181204;23;20028;-73
2022/09/22 06:55:46;;;;;;;26.70;20.37;;;7.90;99.90;;;;;;6182447;23;20051;-72
2022/09/22 06:58:13;;;;;;;27.33;21.77;;;8.20;99.90;;;;;;6181971;23;20005;-73
2022/09/22 07:00:41;;;;;;;26.70;23.87;;;8.20;99.90;;;;;;6180812;23;20013;-72
2022/09/22 07:03:16;;;;;;;25.80;22.43;;;8.20;99.90;;;;;;6180281;23;20056;-72
2022/09/22 07:05:52;;;;;;;24.90;22.23;;;8.50;99.90;;;;;;6182157;23;20005;-72
2022/09/22 07:08:18;;;;;;;25.37;21.87;;;8.50;99.90;;;;;;6182248;23;20331;-72
2022/09/22 07:10:44;;;;;;;28.07;22.53;;;8.60;99.90;;;;;;6180758;23;20009;-73
2022/09/22 07:13:10;;;;;;;27.03;22.40;;;9.90;99.90;;;;;;6180918;23;20005;-72
2022/09/22 07:15:36;;;;;;;25.60;22.13;;;8.80;99.90;;;;;;6181441;23;20005;-73
2022/09/22 07:18:03;;;;;;;22.77;20.33;;;6.60;99.90;;;;;;6180635;23;20005;-73
2022/09/22 07:20:29;;;;;;;24.77;22.20;;;8.90;99.90;;;;;;6181628;23;20439;-72
2022/09/22 07:22:59;;;;;;;25.20;22.67;;;9.00;99.90;;;;;;6178891;23;20501;-73
2022/09/22 07:25:26;;;;;;;23.63;21.23;;;10.90;99.90;;;;;;6182503;23;20354;-73
2022/09/22 07:27:53;;;;;;;23.63;21.20;;;9.20;99.90;;;;;;6181504;23;20043;-73
2022/09/22 07:30:21;;;;;;;26.23;20.97;;;9.30;99.90;;;;;;6181682;23;20386;-73
2022/09/22 07:32:46;;;;;;;24.47;21.80;;;9.30;99.90;;;;;;6179433;23;20173;-73
2022/09/22 07:35:12;;;;;;;30.50;21.30;;;9.40;99.90;;;;;;6181879;23;20092;-72
2022/09/22 07:37:40;;;;;;;23.53;20.67;;;9.50;99.90;;;;;;6181248;23;20001;-73
2022/09/22 07:40:06;;;;;;;24.43;21.00;;;9.50;99.90;;;;;;6181750;23;20024;-71
2022/09/22 07:42:32;;;;;;;25.20;20.77;;;9.60;99.90;;;;;;6180514;23;20088;-71
2022/09/22 07:45:12;;;;;;;23.37;19.13;;;9.70;99.90;;;;;;6178936;23;20051;-70
2022/09/22 07:50:27;;;;;;;21.30;19.00;;;9.90;99.90;;;;;;6120337;23;20029;-70
2022/09/22 07:52:53;;;;;;;29.03;20.43;;;10.00;99.90;;;;;;6117431;23;20010;-70
2022/09/22 07:55:23;;;;;;;22.13;19.67;;;10.00;99.90;;;;;;6119070;23;20010;-70
2022/09/22 07:57:57;;;;;;;18.90;16.80;;;10.10;99.90;;;;;;6096077;23;20088;-70
2022/09/22 08:00:24;;;;;;;20.73;18.60;;;10.20;99.90;;;;;;6118371;23;20016;-71
2022/09/22 08:02:54;;;;;;;22.63;19.57;;;10.30;99.90;;;;;;6118282;23;20009;-70
2022/09/22 08:05:24;;;;;;;22.63;18.80;;;10.40;99.90;;;;;;6119768;23;20002;-70
2022/09/22 08:07:50;;;;;;;23.67;18.95;;;10.40;99.90;;;;;;6120286;23;20017;-71
2022/09/22 08:10:17;;;;;;;19.40;17.50;;;10.50;99.90;;;;;;6121269;23;20060;-70
2022/09/22 08:12:43;;;;;;;18.88;17.02;;;10.60;99.90;;;;;;6119841;23;20050;-71
2022/09/22 08:15:09;;;;;;;19.17;17.23;;;10.60;99.90;;;;;;6120571;23;20022;-71
2022/09/22 08:17:36;;;;;;;19.10;17.13;;;10.80;99.90;;;;;;6119473;23;20017;-70
2022/09/22 08:20:03;;;;;;;18.33;16.10;;;10.80;99.90;;;;;;6120656;23;20466;-71
2022/09/22 08:22:29;;;;;;;21.98;16.52;;;10.80;99.90;;;;;;6119916;23;20010;-71
2022/09/22 08:24:55;;;;;;;18.48;15.60;;;10.80;99.90;;;;;;6121011;23;20069;-70
2022/09/22 08:27:21;;;;;;;19.93;15.03;;;10.90;99.90;;;;;;6148760;23;20036;-70
2022/09/22 08:29:46;;;;;;;20.25;16.73;;;11.00;99.90;;;;;;6181816;23;20013;-70
2022/09/22 08:32:16;;;;;;;16.48;14.77;;;11.10;99.90;;;;;;6182185;23;20059;-70
2022/09/22 08:34:41;;;;;;;19.50;15.45;;;11.20;99.90;;;;;;6183500;23;20063;-70
2022/09/22 08:37:08;;;;;;;19.15;16.25;;;12.00;99.90;;;;;;6182764;23;20100;-70
2022/09/22 08:39:35;;;;;;;18.13;16.38;;;11.10;99.90;;;;;;6181561;23;20000;-70
2022/09/22 08:42:18;;;;;;;18.55;16.42;;;11.30;99.90;;;;;;6181615;23;20088;-70
2022/09/22 08:45:08;;;;;;;20.15;18.02;;;11.30;99.90;;;;;;6183056;23;20334;-70
2022/09/22 08:53:32;;;;;;;20.30;15.48;;;11.60;99.90;;;;;;6182207;23;20063;-70
2022/09/22 08:56:05;;;;;;;17.17;15.05;;;11.80;99.90;;;;;;6183038;23;20076;-70
2022/09/22 08:58:41;;;;;;;18.05;14.85;;;11.80;99.90;;;;;;6182822;23;20005;-70
2022/09/22 09:01:27;;;;;;;16.60;14.85;;;11.80;99.90;;;;;;6181448;23;20001;-71
2022/09/22 09:04:14;;;;;;;16.80;14.63;;;12.00;99.90;;;;;;6182006;23;20092;-70
2022/09/22 09:06:58;;;;;;;19.77;14.90;;;12.00;99.90;;;;;;6182754;23;20048;-70
2022/09/22 09:09:44;;;;;;;19.17;15.13;;;12.10;99.90;;;;;;6182945;23;20001;-70
2022/09/22 09:12:19;;;;;;;15.18;13.68;;;12.20;99.90;;;;;;6179863;23;19997;-70
2022/09/22 09:15:07;;;;;;;17.70;13.40;;;12.30;99.90;;;;;;6182956;23;20009;-71
2022/09/22 09:17:36;;;;;;;17.05;13.90;;;12.50;99.90;;;;;;6183220;23;19998;-71
2022/09/22 09:20:16;;;;;;;11.02;10.00;;;12.50;99.90;;;;;;6181798;23;20040;-71
2022/09/22 09:22:49;;;;;;;13.77;12.38;;;12.60;99.90;;;;;;6179361;23;20009;-71
2022/09/22 09:25:22;;;;;;;15.90;12.18;;;12.80;99.90;;;;;;6182048;23;19997;-70
2022/09/22 09:27:58;;;;;;;12.95;10.57;;;13.00;99.90;;;;;;6182210;23;20025;-70
2022/09/22 09:30:24;;;;;;;11.30;9.10;;;13.10;99.90;;;;;;6183442;23;20005;-71
2022/09/22 09:32:59;;;;;;;12.35;8.93;;;13.20;99.90;;;;;;6180566;23;20005;-71
2022/09/22 09:35:49;;;;;;;11.43;8.15;;;13.30;99.90;;;;;;6183135;23;20072;-71
2022/09/22 09:38:16;;;;;;;9.18;8.27;;;13.40;99.90;;;;;;6182719;23;20005;-72
2022/09/22 09:40:48;;;;;;;10.35;8.10;;;13.60;99.90;;;;;;6182294;23;20009;-71
2022/09/22 09:43:15;;;;;;;14.93;7.72;;;13.80;99.90;;;;;;6180889;23;20005;-70
2022/09/22 09:46:04;;;;;;;11.27;6.70;;;14.10;99.90;;;;;;6181412;23;20004;-70
2022/09/22 09:48:51;;;;;;;9.93;7.53;;;14.10;99.90;;;;;;6182699;23;20082;-71
2022/09/22 09:51:18;;;;;;;9.98;6.57;;;14.40;99.90;;;;;;6182157;23;20005;-70
2022/09/22 09:53:46;;;;;;;9.63;6.50;;;14.40;99.90;;;;;;6180671;23;20431;-70
2022/09/22 09:56:24;;;;;;;12.73;6.72;;;14.50;99.90;;;;;;6179976;23;20350;-71
2022/09/22 10:01:43;;;;;;;6.63;4.88;;;14.70;99.90;;;;;;6180654;23;20485;-71
2022/09/22 10:04:36;;;;;;;8.07;6.95;;;14.70;99.90;;;;;;6180502;23;20009;-70
2022/09/22 10:07:15;;;;;;;10.05;5.95;;;14.80;99.90;;;;;;6180022;23;20005;-70
2022/09/22 10:09:41;;;;;;;6.45;5.32;;;14.90;99.90;;;;;;6181690;23;20312;-70
2022/09/22 10:12:30;;;;;;;10.82;6.43;;;15.40;99.90;;;;;;6179476;23;20009;-71
2022/09/22 10:15:00;;;;;;;7.80;4.93;;;15.00;99.90;;;;;;6182029;23;20001;-71
2022/09/22 10:17:38;;;;;;;9.07;5.47;;;14.90;99.90;;;;;;6180824;23;20079;-71
2022/09/22 10:20:15;;;;;;;9.65;4.53;;;15.10;99.90;;;;;;6181674;23;20601;-71
2022/09/22 10:22:41;;;;;;;6.47;4.72;;;15.10;99.90;;;;;;6179766;23;20009;-71
2022/09/22 10:25:19;;;;;;;7.18;5.53;;;15.70;99.90;;;;;;6180975;23;20001;-70
2022/09/22 10:28:17;;;;;;;8.63;4.78;;;15.20;99.90;;;;;;6180808;23;20025;-70
2022/09/22 10:30:56;;;;;;;5.95;3.88;;;15.20;99.90;;;;;;6181635;23;20028;-71
2022/09/22 10:33:22;;;;;;;6.15;4.05;;;15.20;99.90;;;;;;6181018;23;20423;-71
2022/09/22 10:36:04;;;;;;;7.57;5.50;;;15.30;99.90;;;;;;6182265;23;20004;-71
2022/09/22 10:38:33;;;;;;;8.32;5.38;;;15.40;99.90;;;;;;6181633;23;20040;-71
2022/09/22 10:41:06;;;;;;;9.70;5.53;;;14.90;99.90;;;;;;6181427;23;20706;-71
2022/09/22 10:44:10;;;;;;;9.13;5.55;;;15.90;99.90;;;;;;6179517;23;20622;-71
2022/09/22 10:47:05;;;;;;;5.85;4.25;;;15.40;99.90;;;;;;6182530;23;20077;-71
2022/09/22 10:49:39;;;;;;;6.55;4.20;;;15.50;99.90;;;;;;6181202;23;19997;-69
2022/09/22 10:52:10;;;;;;;8.23;3.20;;;15.20;99.90;;;;;;6179558;23;20009;-70
2022/09/22 10:55:00;;;;;;;6.60;3.78;;;15.50;99.90;;;;;;6180565;23;20665;-72
2022/09/22 10:58:03;;;;;;;5.13;3.42;;;15.50;99.90;;;;;;6181197;23;20014;-70
2022/09/22 11:00:33;;;;;;;5.15;2.42;;;15.50;99.90;;;;;;6181028;23;20307;-70
2022/09/22 11:03:32;;;;;;;5.43;2.35;;;15.50;99.90;;;;;;6179913;23;20005;-70
2022/09/22 11:12:39;;;;;;;5.35;2.05;;;15.60;99.90;;;;;;6168422;23;20088;-71
2022/09/22 11:16:05;;;;;;;5.47;2.17;;;16.40;99.90;;;;;;6179543;23;20055;-69
2022/09/22 11:18:48;;;;;;;;;;;15.70;99.90;;;;;;6115893;23;20047;-70
2022/09/22 11:21:30;;;;;;;3.63;2.13;;;15.80;99.90;;;;;;6181516;23;19910;-70
2022/09/22 11:24:10;;;;;;;2.55;1.75;;;15.80;99.90;;;;;;6177082;23;20005;-69
2022/09/22 11:26:48;;;;;;;3.53;1.77;;;15.80;99.60;;;;;;6181539;23;20001;-69
2022/09/22 11:29:40;;;;;;;2.47;1.23;;;15.80;99.40;;;;;;6180250;23;20525;-69
2022/09/22 11:32:38;;;;;;;2.75;1.13;;;15.90;99.20;;;;;;6179747;23;20009;-69
2022/09/22 11:35:28;;;;;;;5.15;1.25;;;16.60;99.60;;;;;;6178082;23;20108;-70
2022/09/22 11:38:21;;;;;;;2.72;1.40;;;16.00;98.70;;;;;;6180343;23;20044;-68
2022/09/22 11:41:12;;;;;;;5.45;2.45;;;15.90;98.30;;;;;;6180889;23;20001;-68
2022/09/22 11:43:53;;;;;;;2.88;1.70;;;16.10;97.40;;;;;;6180600;23;20009;-69
2022/09/22 11:46:31;;;;;;;3.90;2.17;;;16.20;97.60;;;;;;6180048;23;20001;-69
2022/09/22 11:49:21;;;;;;;6.28;3.17;;;16.30;98.10;;;;;;6180773;23;20032;-69
2022/09/22 11:52:11;;;;;;;5.93;4.13;;;16.30;99.90;;;;;;6179781;23;20475;-69
2022/09/22 11:55:16;;;;;;;7.22;3.65;;;16.20;97.20;;;;;;6177058;23;20009;-69
2022/09/22 11:57:46;;;;;;;6.07;1.90;;;16.30;97.20;;;;;;6146029;23;20017;-69
2022/09/22 12:00:17;;;;;;;3.83;2.45;;;16.40;97.90;;;;;;6180690;23;19997;-69
2022/09/22 12:03:15;;;;;;;4.18;2.92;;;16.30;97.90;;;;;;6181296;23;20021;-69
2022/09/22 12:06:01;;;;;;;4.95;2.30;;;16.30;97.10;;;;;;6178146;23;20005;-69
2022/09/22 12:08:36;;;;;;;3.33;1.73;;;16.30;96.60;;;;;;6181939;23;20005;-69
2022/09/22 12:11:04;;;;;;;3.00;1.98;;;16.30;97.20;;;;;;6180868;23;19996;-69
2022/09/22 12:13:32;;;;;;;5.60;1.85;;;16.40;96.90;;;;;;6180723;23;20009;-70
2022/09/22 12:16:19;;;;;;;3.58;2.47;;;14.90;96.40;;;;;;6179302;23;20063;-69
2022/09/22 12:19:12;;;;;;;2.78;2.25;;;16.40;96.30;;;;;;6179886;23;20482;-70
2022/09/22 12:22:04;;;;;;;6.53;2.28;;;16.40;96.30;;;;;;6180536;23;20072;-69
2022/09/22 12:24:30;;;;;;;4.50;2.13;;;16.50;96.10;;;;;;6181391;23;20509;-70
2022/09/22 12:26:56;;;;;;;3.72;2.38;;;16.50;96.30;;;;;;6177590;23;20008;-69
2022/09/22 12:29:26;;;;;;;3.40;2.38;;;16.70;96.20;;;;;;6180372;23;20091;-70
2022/09/22 12:31:55;;;;;;;3.13;2.65;;;16.80;96.20;;;;;;6180780;23;20083;-70
2022/09/22 12:34:32;;;;;;;3.58;2.90;;;16.90;96.00;;;;;;6180338;23;20007;-70
2022/09/22 12:37:23;;;;;;;4.35;2.88;;;16.90;95.30;;;;;;6180561;23;20001;-70
2022/09/22 12:39:49;;;;;;;4.00;2.25;;;16.90;95.70;;;;;;6179538;23;20040;-70
2022/09/22 12:42:35;;;;;;;5.57;2.22;;;17.00;95.20;;;;;;6182808;23;19997;-70
2022/09/22 12:45:33;;;;;;;5.47;2.70;;;16.90;94.70;;;;;;6182792;23;20005;-69
2022/09/22 12:48:02;;;;;;;4.40;3.05;;;16.70;94.70;;;;;;6182686;23;20001;-70
2022/09/22 12:50:41;;;;;;;5.22;2.88;;;16.80;95.30;;;;;;6179705;23;20001;-70
2022/09/22 12:53:22;;;;;;;4.47;2.58;;;17.60;95.60;;;;;;6182975;23;20061;-70
2022/09/22 12:55:52;;;;;;;8.93;3.03;;;17.10;95.60;;;;;;6182941;23;20072;-70
2022/09/22 12:58:17;;;;;;;8.95;4.78;;;16.90;95.20;;;;;;6183557;23;20036;-70
2022/09/22 13:00:43;;;;;;;5.80;3.17;;;16.70;93.70;;;;;;6181395;23;20005;-70
2022/09/22 13:03:24;;;;;;;2.92;2.72;;;16.80;94.20;;;;;;6182646;23;20508;-70
2022/09/22 13:05:52;;;;;;;5.60;4.03;;;16.90;95.00;;;;;;6182510;23;20080;-70
2022/09/22 13:08:23;;;;;;;4.20;3.20;;;17.10;94.40;;;;;;6181950;23;20076;-70
2022/09/22 13:10:59;;;;;;;3.67;3.13;;;17.00;94.60;;;;;;6180837;23;20077;-70
2022/09/22 13:13:49;;;;;;;4.10;3.38;;;17.10;93.60;;;;;;6182957;23;20427;-70
2022/09/22 13:16:14;;;;;;;5.00;3.13;;;17.20;94.70;;;;;;6182769;23;20450;-70
2022/09/22 13:18:57;;;;;;;3.72;3.15;;;17.20;94.20;;;;;;6182310;23;20056;-70
2022/09/22 13:21:25;;;;;;;3.23;2.80;;;17.20;94.40;;;;;;6181538;23;20009;-70
2022/09/22 13:23:54;;;;;;;3.72;2.58;;;17.30;94.10;;;;;;6182974;23;20009;-70
2022/09/22 13:26:23;;;;;;;3.45;2.20;;;17.20;93.00;;;;;;6182748;23;20316;-70
2022/09/22 13:29:02;;;;;;;5.00;3.13;;;18.00;94.30;;;;;;6182588;23;20009;-70